Time;durP1;ratioP1;P1;durP2;ratioP2;P2;SDS_P1;SDS_P2;PMS_P1;PMS_P2;Temp;Humidity;BMP_temperature;BMP_pressure;BME280_temperature;BME280_humidity;BME280_pressure;Samples;Min_cycle;Max_cycle;Signal;HPM_P1;HPM_P2
2022/01/18 00:01:23;;;;;;;10.50;4.10;;;;;;;;;;5027694;28;20042;-67
2022/01/18 00:03:52;;;;;;;10.95;3.78;;;;;;;;;;5032248;28;20056;-67
2022/01/18 00:06:21;;;;;;;7.50;4.32;;;;;;;;;;5029528;28;20046;-67
2022/01/18 00:08:49;;;;;;;9.10;4.13;;;;;;;;;;5033530;28;20137;-67
2022/01/18 00:11:21;;;;;;;8.68;4.18;;;;;;;;;;5026170;28;20135;-67
2022/01/18 00:13:57;;;;;;;7.13;4.25;;;;;;;;;;5031229;28;20064;-67
2022/01/18 00:16:36;;;;;;;8.93;3.88;;;;;;;;;;5031978;28;20065;-67
2022/01/18 00:19:08;;;;;;;7.13;3.80;;;;;;;;;;5038176;28;20106;-67
2022/01/18 00:21:52;;;;;;;7.28;3.88;;;;;;;;;;5028617;28;20042;-67
2022/01/18 00:24:20;;;;;;;9.88;3.55;;;;;;;;;;5041950;28;20097;-67
2022/01/18 00:26:50;;;;;;;7.88;3.95;;;;;;;;;;5034622;28;20136;-67
2022/01/18 00:29:22;;;;;;;6.95;3.80;;;;;;;;;;5039244;28;20069;-67
2022/01/18 00:32:02;;;;;;;10.35;4.00;;;;;;;;;;5040591;28;20049;-67
2022/01/18 00:34:34;;;;;;;10.10;4.00;;;;;;;;;;5046407;28;20045;-67
2022/01/18 00:37:24;;;;;;;10.45;4.80;;;;;;;;;;5041305;28;20128;-67
2022/01/18 00:39:53;;;;;;;7.22;3.78;;;;;;;;;;5033576;28;20133;-67
2022/01/18 00:42:23;;;;;;;10.68;4.18;;;;;;;;;;5042340;28;20052;-67
2022/01/18 00:44:51;;;;;;;8.82;4.40;;;;;;;;;;5053161;28;20124;-67
2022/01/18 00:47:19;;;;;;;11.38;4.65;;;;;;;;;;5030466;28;20218;-67
2022/01/18 00:49:49;;;;;;;12.90;4.90;;;;;;;;;;5031942;28;20148;-67
2022/01/18 00:52:19;;;;;;;10.30;4.53;;;;;;;;;;5043984;28;20132;-67
2022/01/18 00:54:47;;;;;;;10.18;4.20;;;;;;;;;;4994498;28;25393;-67
2022/01/18 00:57:36;;;;;;;8.50;3.97;;;;;;;;;;930393;28;10003212;-67
2022/01/18 01:00:05;;;;;;;10.63;4.63;;;;;;;;;;5036951;28;20286;-67
2022/01/18 01:02:33;;;;;;;11.02;4.75;;;;;;;;;;5036752;28;20046;-67
2022/01/18 01:05:01;;;;;;;8.05;4.03;;;;;;;;;;5033320;28;20045;-67
2022/01/18 01:07:30;;;;;;;12.27;4.80;;;;;;;;;;5041845;28;20061;-67
2022/01/18 01:10:18;;;;;;;10.60;4.60;;;;;;;;;;5034204;28;20048;-67
2022/01/18 01:12:47;;;;;;;8.10;4.00;;;;;;;;;;5039958;28;20180;-67
2022/01/18 01:15:18;;;;;;;13.73;5.05;;;;;;;;;;5041096;28;20052;-67
2022/01/18 01:18:06;;;;;;;10.50;4.35;;;;;;;;;;5045845;28;20056;-67
2022/01/18 01:32:21;;;;;;;10.52;5.20;;;;;;;;;;4995005;28;20068;-67
2022/01/18 01:34:53;;;;;;;10.32;5.05;;;;;;;;;;5038995;28;20053;-67
2022/01/18 01:43:10;;;;;;;11.73;4.90;;;;;;;;;;5034647;28;20044;-67
2022/01/18 01:45:41;;;;;;;9.88;4.82;;;;;;;;;;5039096;28;20544;-67
2022/01/18 01:48:10;;;;;;;12.80;4.88;;;;;;;;;;5042354;28;20535;-67
2022/01/18 01:50:47;;;;;;;11.38;4.90;;;;;;;;;;5042705;28;20107;-66
2022/01/18 01:53:15;;;;;;;10.35;4.60;;;;;;;;;;5038498;28;20094;-66
2022/01/18 01:55:44;;;;;;;11.07;4.60;;;;;;;;;;5034283;28;20073;-67
2022/01/18 01:58:13;;;;;;;9.10;4.65;;;;;;;;;;5046735;28;20111;-67
2022/01/18 02:00:47;;;;;;;12.98;5.63;;;;;;;;;;5056937;28;20138;-66
2022/01/18 02:03:16;;;;;;;12.35;5.30;;;;;;;;;;5052631;28;20552;-67
2022/01/18 02:05:46;;;;;;;10.65;4.45;;;;;;;;;;4673530;28;10001407;-68
2022/01/18 02:08:15;;;;;;;12.75;5.57;;;;;;;;;;695284;28;10002064;-67
2022/01/18 02:10:45;;;;;;;12.27;5.00;;;;;;;;;;5055661;28;20095;-67
2022/01/18 02:13:14;;;;;;;13.20;5.78;;;;;;;;;;5048274;28;20096;-67
2022/01/18 02:15:48;;;;;;;11.98;5.22;;;;;;;;;;5049386;28;20096;-67
2022/01/18 02:24:03;;;;;;;16.13;5.45;;;;;;;;;;5056305;28;20159;-67
2022/01/18 02:26:32;;;;;;;11.82;5.35;;;;;;;;;;5054294;28;20068;-67
2022/01/18 02:29:01;;;;;;;12.13;5.40;;;;;;;;;;5052189;28;20045;-67
2022/01/18 02:31:29;;;;;;;10.68;5.20;;;;;;;;;;5062253;28;20079;-67
2022/01/18 02:34:01;;;;;;;12.90;5.78;;;;;;;;;;5052673;28;20055;-67
2022/01/18 02:36:31;;;;;;;11.23;4.80;;;;;;;;;;5058847;28;20079;-67
2022/01/18 02:39:00;;;;;;;12.07;5.32;;;;;;;;;;5053366;28;20113;-67
2022/01/18 02:41:29;;;;;;;12.20;5.88;;;;;;;;;;5055371;28;20510;-67
2022/01/18 02:43:58;;;;;;;11.57;5.38;;;;;;;;;;5058553;28;20040;-67
2022/01/18 02:46:27;;;;;;;13.65;5.55;;;;;;;;;;5050502;28;20136;-67
2022/01/18 02:48:56;;;;;;;12.48;5.85;;;;;;;;;;5052839;28;20455;-67
2022/01/18 02:51:25;;;;;;;12.40;5.30;;;;;;;;;;5039813;28;20573;-67
2022/01/18 02:53:57;;;;;;;13.32;5.75;;;;;;;;;;5039853;28;20469;-67
2022/01/18 02:56:27;;;;;;;10.38;5.10;;;;;;;;;;5028560;28;20046;-67
2022/01/18 02:59:02;;;;;;;13.88;5.45;;;;;;;;;;5040096;28;20045;-67
2022/01/18 03:04:28;;;;;;;10.27;5.18;;;;;;;;;;4964312;28;20054;-67
2022/01/18 03:06:57;;;;;;;10.20;4.65;;;;;;;;;;5027897;28;20090;-67
2022/01/18 03:09:27;;;;;;;12.30;4.93;;;;;;;;;;5044263;28;20453;-67
2022/01/18 03:11:55;;;;;;;14.48;6.00;;;;;;;;;;5044216;28;20103;-67
2022/01/18 03:14:23;;;;;;;14.73;5.95;;;;;;;;;;5045045;28;20564;-66
2022/01/18 03:16:52;;;;;;;12.00;5.47;;;;;;;;;;5045558;28;20102;-67
2022/01/18 03:19:20;;;;;;;15.10;5.80;;;;;;;;;;5044034;28;20467;-67
2022/01/18 03:21:50;;;;;;;12.48;6.13;;;;;;;;;;5045238;28;20053;-67
2022/01/18 03:24:43;;;;;;;13.77;5.45;;;;;;;;;;5044333;28;20092;-67
2022/01/18 03:29:59;;;;;;;14.88;5.85;;;;;;;;;;5045378;28;20107;-66
2022/01/18 03:32:27;;;;;;;13.32;5.70;;;;;;;;;;5048979;28;20049;-66
2022/01/18 03:34:55;;;;;;;13.88;5.75;;;;;;;;;;5048319;28;20136;-66
2022/01/18 03:37:24;;;;;;;14.50;6.32;;;;;;;;;;5048035;28;20069;-66
2022/01/18 03:39:53;;;;;;;20.00;6.85;;;;;;;;;;5032811;28;20508;-67
2022/01/18 03:42:41;;;;;;;12.27;5.78;;;;;;;;;;5038295;28;20510;-66
2022/01/18 03:45:10;;;;;;;11.32;5.72;;;;;;;;;;5041788;28;20400;-66
2022/01/18 03:47:39;;;;;;;12.10;5.57;;;;;;;;;;5048991;28;20084;-66
2022/01/18 03:50:07;;;;;;;12.98;6.07;;;;;;;;;;5044018;28;20078;-66
2022/01/18 03:52:36;;;;;;;14.52;6.32;;;;;;;;;;5036667;28;20080;-66
2022/01/18 03:55:06;;;;;;;11.32;5.47;;;;;;;;;;5043054;28;20065;-66
2022/01/18 03:57:36;;;;;;;12.60;6.35;;;;;;;;;;5047983;28;20088;-66
2022/01/18 04:00:05;;;;;;;13.40;5.88;;;;;;;;;;5037189;28;20072;-66
2022/01/18 04:02:33;;;;;;;13.48;5.22;;;;;;;;;;5044676;28;20119;-66
2022/01/18 04:05:02;;;;;;;16.05;6.30;;;;;;;;;;5048828;28;20504;-66
2022/01/18 04:07:31;;;;;;;11.20;5.22;;;;;;;;;;5047251;28;20072;-66
2022/01/18 04:09:59;;;;;;;18.33;6.93;;;;;;;;;;5046812;28;20143;-66
2022/01/18 04:12:27;;;;;;;18.98;6.22;;;;;;;;;;5043742;28;20088;-66
2022/01/18 04:14:59;;;;;;;10.05;4.60;;;;;;;;;;5041375;28;20080;-66
2022/01/18 04:17:50;;;;;;;12.52;6.00;;;;;;;;;;5046133;28;20132;-66
2022/01/18 04:25:57;;;;;;;11.88;4.95;;;;;;;;;;5047092;28;20053;-66
2022/01/18 04:28:34;;;;;;;13.02;4.95;;;;;;;;;;5041985;28;20087;-66
2022/01/18 04:31:06;;;;;;;12.15;5.28;;;;;;;;;;5046858;28;20512;-66
2022/01/18 04:33:35;;;;;;;14.20;6.30;;;;;;;;;;5041865;28;20041;-66
2022/01/18 04:36:06;;;;;;;13.90;6.10;;;;;;;;;;5038910;28;20441;-66
2022/01/18 04:38:35;;;;;;;12.13;6.32;;;;;;;;;;5046187;28;20116;-66
2022/01/18 04:41:09;;;;;;;16.48;6.50;;;;;;;;;;5044564;28;20041;-66
2022/01/18 04:43:48;;;;;;;13.27;6.22;;;;;;;;;;5043862;28;20076;-66
2022/01/18 04:49:05;;;;;;;12.02;5.45;;;;;;;;;;5045146;28;20059;-66
2022/01/18 04:51:33;;;;;;;12.18;6.30;;;;;;;;;;5043887;28;20072;-66
2022/01/18 04:54:05;;;;;;;15.43;5.80;;;;;;;;;;5044918;28;20076;-66
2022/01/18 04:59:16;;;;;;;15.18;5.80;;;;;;;;;;5043788;28;20097;-66
2022/01/18 05:01:49;;;;;;;15.88;5.97;;;;;;;;;;5044741;28;20055;-66
2022/01/18 05:04:18;;;;;;;17.05;6.35;;;;;;;;;;5048897;28;20037;-66
2022/01/18 05:06:46;;;;;;;15.98;5.70;;;;;;;;;;5049027;28;20125;-66
2022/01/18 05:09:14;;;;;;;14.45;6.53;;;;;;;;;;5048040;28;20068;-66
2022/01/18 05:11:51;;;;;;;12.75;5.55;;;;;;;;;;5049969;28;20576;-66
2022/01/18 05:14:27;;;;;;;12.10;5.53;;;;;;;;;;5050003;28;20214;-66
2022/01/18 05:17:09;;;;;;;12.30;6.10;;;;;;;;;;5035137;28;20045;-66
2022/01/18 05:19:58;;;;;;;13.45;6.07;;;;;;;;;;5041410;28;20131;-66
2022/01/18 05:25:12;;;;;;;16.02;5.80;;;;;;;;;;5039572;28;20053;-66
2022/01/18 05:27:40;;;;;;;14.98;6.70;;;;;;;;;;5047056;28;20378;-66
2022/01/18 05:30:08;;;;;;;17.85;5.90;;;;;;;;;;5036846;28;20041;-66
2022/01/18 05:32:38;;;;;;;15.93;6.03;;;;;;;;;;5043047;28;20104;-66
2022/01/18 05:35:07;;;;;;;14.15;6.40;;;;;;;;;;5016339;28;20140;-66
2022/01/18 05:37:35;;;;;;;7.80;4.48;;;;;;;;;;314999;28;10022554;-66
2022/01/18 05:40:09;;;;;;;16.33;6.55;;;;;;;;;;4749699;28;10001506;-67
2022/01/18 05:42:37;;;;;;;20.02;6.15;;;;;;;;;;691048;28;10002005;-66
2022/01/18 05:45:06;;;;;;;13.95;5.78;;;;;;;;;;5046502;28;20134;-66
2022/01/18 05:47:35;;;;;;;13.25;5.25;;;;;;;;;;5048737;28;20132;-66
2022/01/18 05:50:05;;;;;;;17.92;6.43;;;;;;;;;;5043408;28;20120;-66
2022/01/18 05:52:34;;;;;;;16.25;5.80;;;;;;;;;;5036428;28;20131;-66
2022/01/18 05:55:02;;;;;;;12.85;5.03;;;;;;;;;;5049869;28;20485;-66
2022/01/18 05:57:31;;;;;;;12.55;4.65;;;;;;;;;;5051207;28;20053;-66
2022/01/18 06:00:04;;;;;;;16.58;6.07;;;;;;;;;;5050929;28;20075;-66
2022/01/18 06:02:42;;;;;;;15.93;5.75;;;;;;;;;;5040960;28;20163;-66
2022/01/18 06:07:58;;;;;;;13.13;5.63;;;;;;;;;;5051526;28;20128;-66
2022/01/18 06:10:28;;;;;;;14.13;5.95;;;;;;;;;;5046030;28;20103;-66
2022/01/18 06:12:56;;;;;;;11.68;5.13;;;;;;;;;;5050704;28;20091;-66
2022/01/18 06:15:24;;;;;;;15.43;6.72;;;;;;;;;;5050297;28;20049;-66
2022/01/18 06:17:53;;;;;;;16.17;6.13;;;;;;;;;;5051212;28;20353;-66
2022/01/18 06:20:22;;;;;;;20.05;5.82;;;;;;;;;;5047527;28;20084;-66
2022/01/18 06:22:52;;;;;;;15.88;6.00;;;;;;;;;;5047044;28;20085;-66
2022/01/18 06:25:20;;;;;;;11.80;5.25;;;;;;;;;;5042213;28;20136;-66
2022/01/18 06:27:50;;;;;;;15.82;5.88;;;;;;;;;;5055724;28;20122;-66
2022/01/18 06:30:18;;;;;;;13.73;5.80;;;;;;;;;;5050033;28;20454;-66
2022/01/18 06:32:47;;;;;;;16.17;6.75;;;;;;;;;;5043915;28;20103;-66
2022/01/18 06:35:17;;;;;;;14.25;5.25;;;;;;;;;;5049643;28;20049;-66
2022/01/18 06:37:47;;;;;;;12.95;5.50;;;;;;;;;;5049353;28;20574;-66
2022/01/18 06:40:16;;;;;;;17.17;6.47;;;;;;;;;;5041602;28;20052;-66
2022/01/18 06:42:45;;;;;;;19.48;6.90;;;;;;;;;;5049904;28;20057;-66
2022/01/18 06:45:33;;;;;;;14.42;6.28;;;;;;;;;;1950950;28;10023455;-66
2022/01/18 06:48:01;;;;;;;17.90;6.78;;;;;;;;;;4000539;28;10001554;-66
2022/01/18 06:50:30;;;;;;;17.20;7.50;;;;;;;;;;5044105;28;20080;-66
2022/01/18 06:52:59;;;;;;;16.70;7.65;;;;;;;;;;5050628;28;20549;-66
2022/01/18 06:55:29;;;;;;;14.80;6.90;;;;;;;;;;5050301;28;20128;-67
2022/01/18 06:57:57;;;;;;;17.85;7.03;;;;;;;;;;5044936;28;20135;-67
2022/01/18 07:00:26;;;;;;;23.65;8.40;;;;;;;;;;5049152;28;20505;-67
2022/01/18 07:02:54;;;;;;;20.25;7.35;;;;;;;;;;5048479;28;20107;-67
2022/01/18 07:05:23;;;;;;;15.38;6.88;;;;;;;;;;5049080;28;20057;-66
2022/01/18 07:07:51;;;;;;;16.40;6.85;;;;;;;;;;5048139;28;20504;-66
2022/01/18 07:10:23;;;;;;;14.75;6.63;;;;;;;;;;5044457;28;20053;-66
2022/01/18 07:12:55;;;;;;;17.27;6.93;;;;;;;;;;5045646;28;20131;-67
2022/01/18 07:15:24;;;;;;;14.57;5.65;;;;;;;;;;5046674;28;20068;-67
2022/01/18 07:17:52;;;;;;;18.25;6.72;;;;;;;;;;5044062;28;20136;-67
2022/01/18 07:20:20;;;;;;;19.25;6.47;;;;;;;;;;5043248;28;20144;-67
2022/01/18 07:22:49;;;;;;;20.02;7.72;;;;;;;;;;5042496;28;20054;-67
2022/01/18 07:25:18;;;;;;;14.98;5.60;;;;;;;;;;5052365;28;20155;-67
2022/01/18 07:27:48;;;;;;;13.88;6.28;;;;;;;;;;5042675;28;20481;-67
2022/01/18 07:30:16;;;;;;;13.52;6.70;;;;;;;;;;5040661;28;20053;-67
2022/01/18 07:32:44;;;;;;;17.65;6.78;;;;;;;;;;5037715;28;20091;-67
2022/01/18 07:35:13;;;;;;;15.75;7.30;;;;;;;;;;5034777;28;20084;-67
2022/01/18 07:37:41;;;;;;;14.05;6.28;;;;;;;;;;5040694;28;20096;-67
2022/01/18 07:40:10;;;;;;;19.67;6.75;;;;;;;;;;5040343;28;20342;-67
2022/01/18 07:42:39;;;;;;;18.77;7.68;;;;;;;;;;5047418;28;20139;-67
2022/01/18 07:45:09;;;;;;;14.95;6.57;;;;;;;;;;5043989;28;20095;-67
2022/01/18 07:47:37;;;;;;;16.85;6.30;;;;;;;;;;5039444;28;20153;-67
2022/01/18 07:50:06;;;;;;;14.73;6.63;;;;;;;;;;5042709;28;20129;-67
2022/01/18 07:52:35;;;;;;;16.10;5.65;;;;;;;;;;5037032;28;20180;-67
2022/01/18 07:55:04;;;;;;;16.48;6.00;;;;;;;;;;5043981;28;20447;-67
2022/01/18 07:57:33;;;;;;;16.23;6.00;;;;;;;;;;5034740;28;20176;-67
2022/01/18 08:00:16;;;;;;;16.37;5.55;;;;;;;;;;3469915;28;10021392;-67
2022/01/18 08:02:44;;;;;;;17.85;6.05;;;;;;;;;;2610479;28;10001757;-67
2022/01/18 08:05:13;;;;;;;15.55;6.70;;;;;;;;;;5038984;28;20522;-67
2022/01/18 08:07:42;;;;;;;17.98;6.75;;;;;;;;;;5063190;28;20154;-67
2022/01/18 08:10:12;;;;;;;15.68;6.55;;;;;;;;;;5049259;28;20405;-67
2022/01/18 08:12:40;;;;;;;16.75;6.75;;;;;;;;;;5035454;28;20548;-67
2022/01/18 08:15:18;;;;;;;20.65;6.45;;;;;;;;;;5051426;28;20040;-67
2022/01/18 08:17:54;;;;;;;18.80;6.90;;;;;;;;;;5051776;28;20041;-67
2022/01/18 08:20:23;;;;;;;20.63;7.10;;;;;;;;;;5052042;28;20076;-67
2022/01/18 08:22:52;;;;;;;22.05;6.82;;;;;;;;;;5057981;28;20076;-66
2022/01/18 08:25:22;;;;;;;15.63;6.50;;;;;;;;;;5047987;28;20051;-66
2022/01/18 08:27:51;;;;;;;15.65;6.95;;;;;;;;;;5050380;28;20037;-69
2022/01/18 08:30:20;;;;;;;15.93;6.53;;;;;;;;;;5057108;28;20056;-69
2022/01/18 08:32:49;;;;;;;18.38;6.85;;;;;;;;;;5051878;28;20049;-68
2022/01/18 08:35:20;;;;;;;18.10;6.68;;;;;;;;;;5049516;28;20053;-68
2022/01/18 08:37:48;;;;;;;15.73;5.80;;;;;;;;;;5052642;28;20048;-68
2022/01/18 08:40:18;;;;;;;17.92;5.80;;;;;;;;;;5051999;28;20049;-69
2022/01/18 08:42:46;;;;;;;19.02;6.60;;;;;;;;;;5054136;28;20055;-68
2022/01/18 08:45:15;;;;;;;20.38;6.15;;;;;;;;;;5056563;28;20060;-68
2022/01/18 08:47:48;;;;;;;16.75;5.90;;;;;;;;;;5062505;28;20044;-69
2022/01/18 08:50:18;;;;;;;17.13;5.60;;;;;;;;;;5059520;28;20080;-69
2022/01/18 08:52:51;;;;;;;20.27;6.38;;;;;;;;;;5056642;28;20045;-68
2022/01/18 08:55:20;;;;;;;15.77;5.65;;;;;;;;;;5052669;28;20401;-69
2022/01/18 08:57:49;;;;;;;15.43;6.53;;;;;;;;;;5065660;28;20114;-68
2022/01/18 09:00:18;;;;;;;15.25;6.15;;;;;;;;;;5066384;28;20102;-69
2022/01/18 09:02:47;;;;;;;15.05;5.65;;;;;;;;;;5052900;28;20060;-69
2022/01/18 09:05:16;;;;;;;14.70;5.78;;;;;;;;;;5054851;28;20136;-68
2022/01/18 09:07:45;;;;;;;13.90;6.35;;;;;;;;;;5068884;28;20048;-68
2022/01/18 09:10:16;;;;;;;17.52;6.10;;;;;;;;;;5060191;28;20446;-69
2022/01/18 09:12:45;;;;;;;13.98;5.18;;;;;;;;;;5048540;28;20147;-69
2022/01/18 09:15:14;;;;;;;14.45;5.78;;;;;;;;;;5051329;28;20053;-69
2022/01/18 09:17:43;;;;;;;16.90;4.90;;;;;;;;;;5056818;28;20084;-68
2022/01/18 09:20:14;;;;;;;13.25;4.20;;;;;;;;;;5063010;28;20083;-69
2022/01/18 09:22:43;;;;;;;14.57;4.70;;;;;;;;;;5066223;28;20082;-69
2022/01/18 09:25:13;;;;;;;12.98;4.70;;;;;;;;;;5063492;28;20044;-69
2022/01/18 09:27:44;;;;;;;17.02;4.50;;;;;;;;;;5056372;28;20077;-69
2022/01/18 09:30:14;;;;;;;15.85;5.03;;;;;;;;;;5051027;28;20056;-69
2022/01/18 09:32:43;;;;;;;12.63;4.63;;;;;;;;;;5052492;28;20128;-69
2022/01/18 09:35:13;;;;;;;13.85;4.05;;;;;;;;;;5072099;28;20048;-69
2022/01/18 09:37:42;;;;;;;13.90;5.07;;;;;;;;;;5070481;28;20063;-69
2022/01/18 09:40:14;;;;;;;16.75;5.30;;;;;;;;;;5062016;28;20337;-69
2022/01/18 09:42:45;;;;;;;15.15;4.35;;;;;;;;;;5059955;28;20120;-69
2022/01/18 09:45:16;;;;;;;12.68;4.43;;;;;;;;;;5056636;28;20508;-69
2022/01/18 09:47:45;;;;;;;11.48;4.45;;;;;;;;;;5048456;28;20091;-68
2022/01/18 09:50:16;;;;;;;15.52;5.03;;;;;;;;;;5044616;28;20060;-69
2022/01/18 09:52:50;;;;;;;13.98;4.72;;;;;;;;;;5045157;28;20053;-69
2022/01/18 09:55:19;;;;;;;12.85;4.38;;;;;;;;;;5043862;28;20044;-68
2022/01/18 09:57:50;;;;;;;15.55;5.32;;;;;;;;;;5070730;28;20127;-68
2022/01/18 10:00:39;;;;;;;13.85;4.23;;;;;;;;;;956465;28;10003148;-69
2022/01/18 10:03:29;;;;;;;11.00;3.63;;;;;;;;;;5033167;28;20301;-68
2022/01/18 10:05:58;;;;;;;10.40;4.55;;;;;;;;;;5047059;28;20091;-68
2022/01/18 10:08:26;;;;;;;12.02;4.20;;;;;;;;;;5031889;28;20470;-68
2022/01/18 10:10:57;;;;;;;8.98;3.35;;;;;;;;;;5039470;28;20080;-68
2022/01/18 10:13:28;;;;;;;11.00;3.60;;;;;;;;;;5033077;28;20429;-68
2022/01/18 10:16:01;;;;;;;7.40;3.50;;;;;;;;;;5035565;28;20507;-68
2022/01/18 10:18:35;;;;;;;9.30;3.25;;;;;;;;;;5032681;28;20054;-68
2022/01/18 10:21:08;;;;;;;10.27;2.72;;;;;;;;;;5040733;28;20054;-68
2022/01/18 10:23:37;;;;;;;7.63;3.10;;;;;;;;;;5030176;28;20042;-68
2022/01/18 10:26:19;;;;;;;8.68;3.08;;;;;;;;;;5025689;28;20568;-68
2022/01/18 10:28:59;;;;;;;7.00;2.75;;;;;;;;;;5029094;28;20041;-68
2022/01/18 10:31:33;;;;;;;10.32;3.08;;;;;;;;;;5038949;28;20076;-68
2022/01/18 10:34:21;;;;;;;7.53;2.70;;;;;;;;;;5044299;28;20440;-68
2022/01/18 10:36:55;;;;;;;8.18;3.08;;;;;;;;;;5021012;28;20121;-68
2022/01/18 10:39:24;;;;;;;8.80;2.88;;;;;;;;;;5033106;28;20045;-69
2022/01/18 10:41:53;;;;;;;10.52;3.03;;;;;;;;;;5033855;28;20046;-69
2022/01/18 10:44:23;;;;;;;5.22;2.33;;;;;;;;;;5037272;28;20049;-68
2022/01/18 10:46:54;;;;;;;9.10;2.97;;;;;;;;;;5022361;28;20091;-68
2022/01/18 10:49:27;;;;;;;7.70;2.80;;;;;;;;;;5030591;28;20076;-68
2022/01/18 10:52:02;;;;;;;10.57;2.65;;;;;;;;;;5041066;28;20065;-68
2022/01/18 10:54:51;;;;;;;7.75;2.88;;;;;;;;;;5042443;28;20060;-68
2022/01/18 10:57:21;;;;;;;5.65;2.17;;;;;;;;;;5036320;28;20057;-68
2022/01/18 10:59:56;;;;;;;6.85;2.33;;;;;;;;;;5043617;28;20057;-68
2022/01/18 11:02:25;;;;;;;7.68;2.58;;;;;;;;;;5036496;28;20046;-68
2022/01/18 11:04:54;;;;;;;8.43;2.80;;;;;;;;;;5036570;28;20049;-68
2022/01/18 11:07:24;;;;;;;9.75;2.88;;;;;;;;;;5037690;28;20455;-68
2022/01/18 11:09:54;;;;;;;6.78;2.50;;;;;;;;;;5046234;28;20497;-68
2022/01/18 11:12:27;;;;;;;11.85;2.95;;;;;;;;;;5021224;28;20046;-68
2022/01/18 11:15:05;;;;;;;9.73;2.85;;;;;;;;;;5041766;28;20152;-68
2022/01/18 11:17:39;;;;;;;13.23;3.53;;;;;;;;;;5039075;28;20045;-68
2022/01/18 11:20:09;;;;;;;6.90;2.72;;;;;;;;;;5029914;28;20041;-68
2022/01/18 11:22:38;;;;;;;9.10;3.15;;;;;;;;;;5031981;28;20675;-68
2022/01/18 11:25:07;;;;;;;18.33;3.38;;;;;;;;;;5035868;28;20059;-68
2022/01/18 11:27:39;;;;;;;10.65;3.10;;;;;;;;;;5036174;28;20077;-68
2022/01/18 11:30:10;;;;;;;10.82;3.13;;;;;;;;;;5035876;28;20045;-68
2022/01/18 11:32:39;;;;;;;9.70;2.50;;;;;;;;;;5035413;28;20548;-68
2022/01/18 11:35:12;;;;;;;11.27;3.38;;;;;;;;;;5041175;28;20052;-68
2022/01/18 11:37:48;;;;;;;9.15;3.20;;;;;;;;;;5022561;28;20612;-68
2022/01/18 11:40:18;;;;;;;7.82;3.28;;;;;;;;;;5039237;28;20053;-68
2022/01/18 11:42:51;;;;;;;10.10;3.35;;;;;;;;;;5033543;28;20048;-68
2022/01/18 11:45:35;;;;;;;10.60;2.92;;;;;;;;;;5031956;28;20070;-68
2022/01/18 11:48:05;;;;;;;10.68;3.30;;;;;;;;;;5033182;28;20516;-68
2022/01/18 11:50:36;;;;;;;8.70;3.15;;;;;;;;;;4996352;28;20505;-68
2022/01/18 11:53:25;;;;;;;9.10;3.42;;;;;;;;;;5007297;28;20050;-68
2022/01/18 11:55:55;;;;;;;13.00;3.92;;;;;;;;;;5009086;28;20573;-68
2022/01/18 11:58:24;;;;;;;14.80;3.42;;;;;;;;;;5005423;28;20082;-68
2022/01/18 12:00:57;;;;;;;8.50;2.78;;;;;;;;;;5011687;28;20054;-68
2022/01/18 12:03:28;;;;;;;8.32;2.65;;;;;;;;;;5025393;28;20049;-68
2022/01/18 12:05:57;;;;;;;7.15;3.15;;;;;;;;;;5012399;28;20057;-68
2022/01/18 12:08:41;;;;;;;7.37;2.67;;;;;;;;;;3502548;28;10002005;-68
2022/01/18 12:11:11;;;;;;;6.60;2.13;;;;;;;;;;2600898;28;10001937;-68
2022/01/18 12:13:42;;;;;;;7.35;2.47;;;;;;;;;;5019309;28;20045;-68
2022/01/18 12:16:20;;;;;;;7.35;2.08;;;;;;;;;;5021298;28;20112;-68
2022/01/18 12:19:01;;;;;;;13.70;2.33;;;;;;;;;;5020669;28;20053;-68
2022/01/18 12:21:31;;;;;;;7.57;2.33;;;;;;;;;;5043896;28;20045;-68
2022/01/18 12:24:00;;;;;;;11.70;2.20;;;;;;;;;;5054215;28;20045;-68
2022/01/18 12:26:33;;;;;;;4.57;1.90;;;;;;;;;;5049875;28;20123;-68
2022/01/18 12:35:02;;;;;;;5.07;1.98;;;;;;;;;;5050857;28;20060;-68
2022/01/18 12:37:44;;;;;;;9.95;2.53;;;;;;;;;;5047633;28;20408;-68
2022/01/18 12:40:40;;;;;;;6.35;2.15;;;;;;;;;;5038899;28;20493;-68
2022/01/18 12:46:02;;;;;;;8.00;1.90;;;;;;;;;;5047476;28;20126;-69
2022/01/18 12:48:36;;;;;;;7.82;2.63;;;;;;;;;;5054606;28;20049;-68
2022/01/18 12:51:09;;;;;;;7.82;1.90;;;;;;;;;;5050154;28;20100;-69
2022/01/18 12:53:39;;;;;;;6.15;2.13;;;;;;;;;;5045771;28;20122;-68
2022/01/18 12:56:10;;;;;;;5.75;2.00;;;;;;;;;;5046900;28;20085;-68
2022/01/18 12:58:40;;;;;;;5.43;1.90;;;;;;;;;;5048854;28;20113;-68
2022/01/18 13:01:10;;;;;;;4.90;1.67;;;;;;;;;;5040695;28;20114;-68
2022/01/18 13:03:41;;;;;;;13.07;2.00;;;;;;;;;;5051324;28;20040;-69
2022/01/18 13:06:11;;;;;;;4.97;1.83;;;;;;;;;;5055786;28;20049;-68
2022/01/18 13:08:50;;;;;;;8.40;1.70;;;;;;;;;;5055997;28;20136;-68
2022/01/18 13:11:19;;;;;;;11.20;1.42;;;;;;;;;;5056144;28;20040;-68
2022/01/18 13:13:56;;;;;;;4.75;1.58;;;;;;;;;;5052895;28;20107;-68
2022/01/18 13:27:39;;;;;;;3.80;1.27;;;;;;;;;;5043096;28;20140;-66
2022/01/18 13:30:15;;;;;;;3.63;1.40;;;;;;;;;;5048583;28;20075;-67
2022/01/18 13:32:44;;;;;;;4.32;1.42;;;;;;;;;;5053397;28;20048;-67
2022/01/18 13:35:16;;;;;;;3.92;1.30;;;;;;;;;;5060255;28;20044;-67
2022/01/18 13:37:44;;;;;;;5.15;1.20;;;;;;;;;;5064357;28;20048;-67
2022/01/18 13:40:17;;;;;;;3.03;1.23;;;;;;;;;;5059664;28;20044;-67
2022/01/18 13:42:47;;;;;;;3.65;1.60;;;;;;;;;;5055185;28;20053;-67
2022/01/18 13:45:17;;;;;;;5.85;1.60;;;;;;;;;;5064399;28;20053;-67
2022/01/18 13:47:49;;;;;;;2.55;1.35;;;;;;;;;;5050968;28;20093;-67
2022/01/18 13:50:41;;;;;;;4.72;1.45;;;;;;;;;;5047997;28;20183;-68
2022/01/18 13:53:11;;;;;;;3.92;1.67;;;;;;;;;;5056523;28;20483;-68
2022/01/18 13:55:44;;;;;;;6.90;2.13;;;;;;;;;;5058301;28;20060;-68
2022/01/18 13:58:13;;;;;;;3.97;1.73;;;;;;;;;;5050508;28;20036;-68
2022/01/18 14:00:42;;;;;;;3.17;1.50;;;;;;;;;;5053766;28;20048;-68
2022/01/18 14:03:10;;;;;;;4.38;1.38;;;;;;;;;;5050700;28;20106;-68
2022/01/18 14:05:49;;;;;;;3.20;1.38;;;;;;;;;;5055237;28;20051;-68
2022/01/18 14:08:18;;;;;;;5.38;1.42;;;;;;;;;;5031051;28;20049;-68
2022/01/18 14:10:47;;;;;;;4.85;1.35;;;;;;;;;;5050148;28;20037;-68
2022/01/18 14:13:29;;;;;;;3.15;1.55;;;;;;;;;;5045987;28;20050;-68
2022/01/18 14:15:58;;;;;;;5.55;1.65;;;;;;;;;;5053079;28;20527;-68
2022/01/18 14:18:26;;;;;;;3.13;1.17;;;;;;;;;;5057835;28;20102;-68
2022/01/18 14:20:56;;;;;;;5.53;1.33;;;;;;;;;;5066121;28;20045;-68
2022/01/18 14:23:25;;;;;;;7.25;1.30;;;;;;;;;;5052555;28;20538;-68
2022/01/18 14:25:56;;;;;;;4.35;1.38;;;;;;;;;;5054842;28;20043;-68
2022/01/18 14:28:29;;;;;;;7.40;1.33;;;;;;;;;;5042608;28;20080;-68
2022/01/18 14:31:06;;;;;;;5.25;1.10;;;;;;;;;;5044836;28;20045;-68
2022/01/18 14:33:35;;;;;;;2.67;0.82;;;;;;;;;;5042588;28;20060;-68
2022/01/18 14:36:15;;;;;;;6.65;1.13;;;;;;;;;;5044491;28;20055;-68
2022/01/18 14:38:43;;;;;;;5.13;1.15;;;;;;;;;;5048381;28;20045;-68
2022/01/18 14:41:18;;;;;;;3.88;1.40;;;;;;;;;;5053778;28;20044;-68
2022/01/18 14:43:52;;;;;;;5.13;1.00;;;;;;;;;;5043220;28;20053;-68
2022/01/18 14:46:36;;;;;;;4.05;1.10;;;;;;;;;;5048787;28;20053;-68
2022/01/18 14:49:05;;;;;;;2.85;0.90;;;;;;;;;;5051349;28;20502;-68
2022/01/18 14:51:35;;;;;;;12.02;1.30;;;;;;;;;;5055029;28;20048;-68
2022/01/18 14:54:06;;;;;;;5.32;1.17;;;;;;;;;;5044074;28;20040;-68
2022/01/18 14:56:51;;;;;;;3.70;0.95;;;;;;;;;;5042267;28;20056;-68
2022/01/18 14:59:34;;;;;;;8.54;1.11;;;;;;;;;;2536027;28;10004129;-68
2022/01/18 15:02:03;;;;;;;7.63;1.40;;;;;;;;;;3651344;28;10001353;-68
2022/01/18 15:04:32;;;;;;;3.35;0.95;;;;;;;;;;5043252;28;20408;-68
2022/01/18 15:07:03;;;;;;;5.00;1.10;;;;;;;;;;5037969;28;20053;-68
2022/01/18 15:09:31;;;;;;;6.80;1.75;;;;;;;;;;5043655;28;20053;-68
2022/01/18 15:12:00;;;;;;;9.02;1.85;;;;;;;;;;5050610;28;20041;-68
2022/01/18 15:14:29;;;;;;;4.68;1.02;;;;;;;;;;5044657;28;20140;-68
2022/01/18 15:16:59;;;;;;;7.50;1.10;;;;;;;;;;5041763;28;20134;-68
2022/01/18 15:19:28;;;;;;;2.75;1.25;;;;;;;;;;5045590;28;20079;-68
2022/01/18 15:21:56;;;;;;;5.63;1.35;;;;;;;;;;5047792;28;20055;-68
2022/01/18 15:24:26;;;;;;;5.65;1.58;;;;;;;;;;5051447;28;20095;-68
2022/01/18 15:26:59;;;;;;;6.75;1.55;;;;;;;;;;5056456;28;20488;-68
2022/01/18 15:29:28;;;;;;;6.40;1.30;;;;;;;;;;5054964;28;20519;-68
2022/01/18 15:31:58;;;;;;;6.50;1.92;;;;;;;;;;5047176;28;20045;-68
2022/01/18 15:34:27;;;;;;;12.15;1.45;;;;;;;;;;5051717;28;20044;-68
2022/01/18 15:36:56;;;;;;;6.55;1.65;;;;;;;;;;5044442;28;20059;-68
2022/01/18 15:39:26;;;;;;;3.55;1.25;;;;;;;;;;5046921;28;20507;-68
2022/01/18 15:41:56;;;;;;;4.18;1.38;;;;;;;;;;5044677;28;20052;-68
2022/01/18 15:44:25;;;;;;;9.02;1.55;;;;;;;;;;5043951;28;20053;-68
2022/01/18 15:46:54;;;;;;;3.63;1.33;;;;;;;;;;5044830;28;20099;-68
2022/01/18 15:49:23;;;;;;;4.57;1.15;;;;;;;;;;5046636;28;20098;-68
2022/01/18 15:51:54;;;;;;;8.50;1.25;;;;;;;;;;5043642;28;20122;-68
2022/01/18 15:54:23;;;;;;;9.90;1.20;;;;;;;;;;5045594;28;20053;-68
2022/01/18 15:56:59;;;;;;;2.95;1.15;;;;;;;;;;5047956;28;20060;-68
2022/01/18 15:59:27;;;;;;;4.38;1.70;;;;;;;;;;5045029;28;20102;-68
2022/01/18 16:01:56;;;;;;;6.10;1.55;;;;;;;;;;5048010;28;20051;-68
2022/01/18 16:04:25;;;;;;;3.03;1.20;;;;;;;;;;5047373;28;20389;-68